sensor_id;sensor_type;location;lat;lon;timestamp;pressure;altitude;pressure_sealevel;temperature;humidity
66273;BME280;58450;52.150;4.466;2022-12-10T00:01:41;100811.69;;;-0.19;100.00
66273;BME280;58450;52.150;4.466;2022-12-10T00:04:11;100796.78;;;-0.08;100.00
66273;BME280;58450;52.150;4.466;2022-12-10T00:06:41;100810.00;;;-0.08;100.00
66273;BME280;58450;52.150;4.466;2022-12-10T00:09:10;100806.75;;;-0.01;100.00
66273;BME280;58450;52.150;4.466;2022-12-10T00:11:41;100802.31;;;-0.11;100.00
66273;BME280;58450;52.150;4.466;2022-12-10T00:14:11;100808.91;;;-0.17;100.00
66273;BME280;58450;52.150;4.466;2022-12-10T00:16:39;100821.03;;;-0.26;100.00
66273;BME280;58450;52.150;4.466;2022-12-10T00:19:07;100814.53;;;-0.33;100.00
66273;BME280;58450;52.150;4.466;2022-12-10T00:21:35;100808.38;;;-0.34;100.00
66273;BME280;58450;52.150;4.466;2022-12-10T00:24:04;100819.09;;;-0.35;100.00
66273;BME280;58450;52.150;4.466;2022-12-10T00:26:34;100814.91;;;-0.26;100.00
66273;BME280;58450;52.150;4.466;2022-12-10T00:29:07;100827.03;;;-0.35;100.00
66273;BME280;58450;52.150;4.466;2022-12-10T00:31:37;100829.31;;;-0.31;100.00
66273;BME280;58450;52.150;4.466;2022-12-10T00:34:08;100821.16;;;-0.16;100.00
66273;BME280;58450;52.150;4.466;2022-12-10T00:36:39;100819.25;;;-0.14;100.00
66273;BME280;58450;52.150;4.466;2022-12-10T00:39:08;100816.75;;;-0.04;100.00
66273;BME280;58450;52.150;4.466;2022-12-10T00:41:38;100813.16;;;-0.03;100.00
66273;BME280;58450;52.150;4.466;2022-12-10T00:44:06;100813.50;;;-0.08;100.00
66273;BME280;58450;52.150;4.466;2022-12-10T00:46:34;100816.75;;;-0.04;100.00
66273;BME280;58450;52.150;4.466;2022-12-10T00:49:02;100818.53;;;-0.05;100.00
66273;BME280;58450;52.150;4.466;2022-12-10T00:51:30;100818.53;;;-0.05;100.00
66273;BME280;58450;52.150;4.466;2022-12-10T00:53:58;100813.88;;;-0.01;100.00
66273;BME280;58450;52.150;4.466;2022-12-10T00:56:27;100810.97;;;0.02;100.00
66273;BME280;58450;52.150;4.466;2022-12-10T00:58:56;100812.78;;;0.02;100.00
66273;BME280;58450;52.150;4.466;2022-12-10T01:01:27;100807.03;;;0.19;100.00
66273;BME280;58450;52.150;4.466;2022-12-10T01:03:59;100804.63;;;0.16;100.00
66273;BME280;58450;52.150;4.466;2022-12-10T01:06:29;100804.00;;;0.24;100.00
66273;BME280;58450;52.150;4.466;2022-12-10T01:09:00;100801.84;;;0.18;100.00
66273;BME280;58450;52.150;4.466;2022-12-10T01:11:31;100792.81;;;0.32;100.00
66273;BME280;58450;52.150;4.466;2022-12-10T01:14:00;100811.47;;;0.30;100.00
66273;BME280;58450;52.150;4.466;2022-12-10T01:16:29;100822.75;;;0.21;100.00
66273;BME280;58450;52.150;4.466;2022-12-10T01:18:58;100827.81;;;0.24;100.00
66273;BME280;58450;52.150;4.466;2022-12-10T01:21:28;100826.63;;;0.28;100.00
66273;BME280;58450;52.150;4.466;2022-12-10T01:23:57;100829.63;;;0.35;100.00
66273;BME280;58450;52.150;4.466;2022-12-10T01:26:27;100829.75;;;0.33;100.00
66273;BME280;58450;52.150;4.466;2022-12-10T01:28:57;100841.44;;;0.42;100.00
66273;BME280;58450;52.150;4.466;2022-12-10T01:31:26;100835.19;;;0.32;100.00
66273;BME280;58450;52.150;4.466;2022-12-10T01:33:57;100840.56;;;0.41;100.00
66273;BME280;58450;52.150;4.466;2022-12-10T01:36:27;100843.34;;;0.28;100.00
66273;BME280;58450;52.150;4.466;2022-12-10T01:38:57;100842.38;;;0.18;100.00
66273;BME280;58450;52.150;4.466;2022-12-10T01:41:27;100851.03;;;0.09;100.00
66273;BME280;58450;52.150;4.466;2022-12-10T01:44:00;100847.91;;;0.15;100.00
66273;BME280;58450;52.150;4.466;2022-12-10T01:46:31;100844.41;;;0.14;100.00
66273;BME280;58450;52.150;4.466;2022-12-10T01:49:03;100854.41;;;0.11;100.00
66273;BME280;58450;52.150;4.466;2022-12-10T01:51:36;100847.31;;;0.23;100.00
66273;BME280;58450;52.150;4.466;2022-12-10T01:54:09;100852.47;;;0.13;100.00
66273;BME280;58450;52.150;4.466;2022-12-10T01:56:42;100850.09;;;0.21;100.00
66273;BME280;58450;52.150;4.466;2022-12-10T01:59:12;100848.41;;;0.20;100.00
66273;BME280;58450;52.150;4.466;2022-12-10T02:01:45;100851.38;;;0.16;100.00
66273;BME280;58450;52.150;4.466;2022-12-10T02:04:25;100847.31;;;0.23;100.00
66273;BME280;58450;52.150;4.466;2022-12-10T02:07:01;100850.34;;;0.29;100.00
66273;BME280;58450;52.150;4.466;2022-12-10T02:09:38;100856.34;;;0.43;100.00
66273;BME280;58450;52.150;4.466;2022-12-10T02:12:18;100841.44;;;0.31;100.00
66273;BME280;58450;52.150;4.466;2022-12-10T02:14:55;100847.44;;;0.33;100.00
66273;BME280;58450;52.150;4.466;2022-12-10T02:17:30;100843.84;;;0.34;100.00
66273;BME280;58450;52.150;4.466;2022-12-10T02:20:09;100837.81;;;0.43;100.00
66273;BME280;58450;52.150;4.466;2022-12-10T02:22:45;100839.50;;;0.44;100.00
66273;BME280;58450;52.150;4.466;2022-12-10T02:25:17;100841.91;;;0.36;100.00
66273;BME280;58450;52.150;4.466;2022-12-10T02:27:54;100846.47;;;0.45;100.00
66273;BME280;58450;52.150;4.466;2022-12-10T02:30:31;100843.56;;;0.48;100.00
66273;BME280;58450;52.150;4.466;2022-12-10T02:33:03;100838.88;;;0.52;100.00
66273;BME280;58450;52.150;4.466;2022-12-10T02:35:35;100843.31;;;0.51;100.00
66273;BME280;58450;52.150;4.466;2022-12-10T02:38:10;100838.41;;;0.47;100.00
66273;BME280;58450;52.150;4.466;2022-12-10T02:40:43;100839.50;;;0.33;100.00
66273;BME280;58450;52.150;4.466;2022-12-10T02:43:15;100829.50;;;0.25;100.00
66273;BME280;58450;52.150;4.466;2022-12-10T02:45:46;100837.94;;;0.30;100.00
66273;BME280;58450;52.150;4.466;2022-12-10T02:48:14;100824.34;;;0.35;100.00
66273;BME280;58450;52.150;4.466;2022-12-10T02:50:42;100835.19;;;0.43;100.00
66273;BME280;58450;52.150;4.466;2022-12-10T02:53:10;100837.69;;;0.33;100.00
66273;BME280;58450;52.150;4.466;2022-12-10T02:55:49;100833.47;;;0.53;100.00
66273;BME280;58450;52.150;4.466;2022-12-10T02:58:28;100844.19;;;0.52;100.00
66273;BME280;58450;52.150;4.466;2022-12-10T03:01:13;100844.19;;;0.52;100.00
66273;BME280;58450;52.150;4.466;2022-12-10T03:03:56;100845.03;;;0.41;100.00
66273;BME280;58450;52.150;4.466;2022-12-10T03:06:33;100843.94;;;0.32;100.00
66273;BME280;58450;52.150;4.466;2022-12-10T03:09:08;100842.16;;;0.44;100.00
66273;BME280;58450;52.150;4.466;2022-12-10T03:11:40;100840.47;;;0.32;100.00
66273;BME280;58450;52.150;4.466;2022-12-10T03:14:13;100839.75;;;0.41;100.00
66273;BME280;58450;52.150;4.466;2022-12-10T03:16:48;100843.94;;;0.43;100.00
66273;BME280;58450;52.150;4.466;2022-12-10T03:19:21;100846.22;;;0.14;100.00
66273;BME280;58450;52.150;4.466;2022-12-10T03:21:53;100845.28;;;0.15;100.00
66273;BME280;58450;52.150;4.466;2022-12-10T03:24:26;100843.84;;;0.22;100.00
66273;BME280;58450;52.150;4.466;2022-12-10T03:26:56;100842.97;;;0.22;100.00
66273;BME280;58450;52.150;4.466;2022-12-10T03:29:29;100849.72;;;0.26;100.00
66273;BME280;58450;52.150;4.466;2022-12-10T03:32:02;100845.88;;;0.30;100.00
66273;BME280;58450;52.150;4.466;2022-12-10T03:34:30;100845.78;;;0.43;100.00
66273;BME280;58450;52.150;4.466;2022-12-10T03:36:59;100851.75;;;0.56;100.00
66273;BME280;58450;52.150;4.466;2022-12-10T03:39:28;100845.16;;;0.62;100.00
66273;BME280;58450;52.150;4.466;2022-12-10T03:41:56;100851.75;;;0.56;100.00
66273;BME280;58450;52.150;4.466;2022-12-10T03:44:27;100845.50;;;0.57;100.00
66273;BME280;58450;52.150;4.466;2022-12-10T03:46:56;100852.22;;;0.50;100.00
66273;BME280;58450;52.150;4.466;2022-12-10T03:49:25;100849.38;;;0.42;100.00
66273;BME280;58450;52.150;4.466;2022-12-10T03:51:53;100851.16;;;0.30;100.00
66273;BME280;58450;52.150;4.466;2022-12-10T03:54:21;100852.84;;;0.42;100.00
66273;BME280;58450;52.150;4.466;2022-12-10T03:56:48;100858.38;;;0.39;100.00
66273;BME280;58450;52.150;4.466;2022-12-10T03:59:16;100851.16;;;0.41;100.00
66273;BME280;58450;52.150;4.466;2022-12-10T04:01:44;100854.41;;;0.45;100.00
66273;BME280;58450;52.150;4.466;2022-12-10T04:04:11;100856.59;;;0.28;100.00
66273;BME280;58450;52.150;4.466;2022-12-10T04:06:41;100849.72;;;0.37;100.00
66273;BME280;58450;52.150;4.466;2022-12-10T04:09:10;100851.06;;;0.20;100.00
66273;BME280;58450;52.150;4.466;2022-12-10T04:11:39;100847.19;;;0.24;100.00
66273;BME280;58450;52.150;4.466;2022-12-10T04:14:07;100859.81;;;0.21;100.00
66273;BME280;58450;52.150;4.466;2022-12-10T04:16:53;100852.84;;;0.20;100.00
66273;BME280;58450;52.150;4.466;2022-12-10T04:19:21;100850.44;;;0.17;100.00
66273;BME280;58450;52.150;4.466;2022-12-10T04:21:50;100853.22;;;0.26;100.00
66273;BME280;58450;52.150;4.466;2022-12-10T04:24:36;100846.22;;;0.48;100.00
66273;BME280;58450;52.150;4.466;2022-12-10T04:27:23;100854.66;;;0.42;100.00
66273;BME280;58450;52.150;4.466;2022-12-10T04:29:54;100853.47;;;0.35;100.00
66273;BME280;58450;52.150;4.466;2022-12-10T04:32:23;100857.78;;;0.13;100.00
66273;BME280;58450;52.150;4.466;2022-12-10T04:34:53;100852.97;;;0.07;100.00
66273;BME280;58450;52.150;4.466;2022-12-10T04:37:23;100849.94;;;0.11;100.00
66273;BME280;58450;52.150;4.466;2022-12-10T04:39:51;100855.16;;;0.24;100.00
66273;BME280;58450;52.150;4.466;2022-12-10T04:42:21;100846.47;;;0.34;100.00
66273;BME280;58450;52.150;4.466;2022-12-10T04:44:49;100853.22;;;0.38;100.00
66273;BME280;58450;52.150;4.466;2022-12-10T04:47:17;100855.84;;;0.49;100.00
66273;BME280;58450;52.150;4.466;2022-12-10T04:49:45;100853.44;;;0.46;100.00
66273;BME280;58450;52.150;4.466;2022-12-10T04:52:13;100848.66;;;0.40;100.00
66273;BME280;58450;52.150;4.466;2022-12-10T04:54:44;100853.69;;;0.54;100.00
66273;BME280;58450;52.150;4.466;2022-12-10T04:57:11;100865.59;;;0.49;100.00
66273;BME280;58450;52.150;4.466;2022-12-10T04:59:40;100857.91;;;0.57;100.00
66273;BME280;58450;52.150;4.466;2022-12-10T05:02:07;100858.38;;;0.62;100.00
66273;BME280;58450;52.150;4.466;2022-12-10T05:04:35;100856.47;;;0.53;100.00
66273;BME280;58450;52.150;4.466;2022-12-10T05:07:02;100855.97;;;0.36;100.00
66273;BME280;58450;52.150;4.466;2022-12-10T05:09:30;100847.44;;;0.33;100.00
66273;BME280;58450;52.150;4.466;2022-12-10T05:11:59;100849.63;;;0.27;100.00
66273;BME280;58450;52.150;4.466;2022-12-10T05:14:26;100853.22;;;0.15;100.00
66273;BME280;58450;52.150;4.466;2022-12-10T05:16:54;100853.22;;;0.26;100.00
66273;BME280;58450;52.150;4.466;2022-12-10T05:19:21;100846.00;;;0.40;100.00
66273;BME280;58450;52.150;4.466;2022-12-10T05:21:49;100862.34;;;0.45;100.00
66273;BME280;58450;52.150;4.466;2022-12-10T05:24:35;100847.22;;;0.36;100.00
66273;BME280;58450;52.150;4.466;2022-12-10T05:27:04;100844.91;;;0.54;100.00
66273;BME280;58450;52.150;4.466;2022-12-10T05:29:32;100837.06;;;0.64;100.00
66273;BME280;58450;52.150;4.466;2022-12-10T05:32:01;100842.84;;;0.69;100.00
66273;BME280;58450;52.150;4.466;2022-12-10T05:34:31;100838.97;;;0.73;100.00
66273;BME280;58450;52.150;4.466;2022-12-10T05:36:59;100838.88;;;0.75;100.00
66273;BME280;58450;52.150;4.466;2022-12-10T05:39:26;100844.03;;;0.76;100.00
66273;BME280;58450;52.150;4.466;2022-12-10T05:41:54;100841.03;;;0.81;100.00
66273;BME280;58450;52.150;4.466;2022-12-10T05:44:22;100841.84;;;0.81;100.00
66273;BME280;58450;52.150;4.466;2022-12-10T05:46:51;100842.59;;;0.61;100.00
66273;BME280;58450;52.150;4.466;2022-12-10T05:49:19;100829.13;;;0.52;100.00
66273;BME280;58450;52.150;4.466;2022-12-10T05:51:46;100835.84;;;0.68;100.00
66273;BME280;58450;52.150;4.466;2022-12-10T05:54:14;100835.50;;;0.72;100.00
66273;BME280;58450;52.150;4.466;2022-12-10T05:56:42;100849.81;;;0.47;100.00
66273;BME280;58450;52.150;4.466;2022-12-10T05:59:09;100849.00;;;0.47;100.00
66273;BME280;58450;52.150;4.466;2022-12-10T06:01:38;100847.06;;;0.49;100.00
66273;BME280;58450;52.150;4.466;2022-12-10T06:04:06;100846.59;;;0.43;100.00
66273;BME280;58450;52.150;4.466;2022-12-10T06:06:35;100850.94;;;0.33;100.00
66273;BME280;58450;52.150;4.466;2022-12-10T06:09:05;100851.06;;;0.32;100.00
66273;BME280;58450;52.150;4.466;2022-12-10T06:11:34;100841.78;;;0.60;100.00
66273;BME280;58450;52.150;4.466;2022-12-10T06:14:02;100850.06;;;0.67;100.00
66273;BME280;58450;52.150;4.466;2022-12-10T06:16:30;100849.09;;;0.68;100.00
66273;BME280;58450;52.150;4.466;2022-12-10T06:18:59;100855.25;;;0.57;100.00
66273;BME280;58450;52.150;4.466;2022-12-10T06:21:26;100863.44;;;0.42;100.00
66273;BME280;58450;52.150;4.466;2022-12-10T06:23:54;100854.41;;;0.45;100.00
66273;BME280;58450;52.150;4.466;2022-12-10T06:26:23;100860.69;;;0.44;100.00
66273;BME280;58450;52.150;4.466;2022-12-10T06:28:52;100861.50;;;0.56;100.00
66273;BME280;58450;52.150;4.466;2022-12-10T06:31:21;100863.56;;;0.41;100.00
66273;BME280;58450;52.150;4.466;2022-12-10T06:33:50;100863.31;;;0.55;100.00
66273;BME280;58450;52.150;4.466;2022-12-10T06:36:19;100861.75;;;0.64;100.00
66273;BME280;58450;52.150;4.466;2022-12-10T06:38:47;100863.78;;;0.72;100.00
66273;BME280;58450;52.150;4.466;2022-12-10T06:41:16;100871.00;;;0.58;100.00
66273;BME280;58450;52.150;4.466;2022-12-10T06:43:46;100877.25;;;0.69;100.00
66273;BME280;58450;52.150;4.466;2022-12-10T06:46:15;100880.88;;;0.56;100.00
66273;BME280;58450;52.150;4.466;2022-12-10T06:48:45;100880.41;;;0.63;100.00
66273;BME280;58450;52.150;4.466;2022-12-10T06:51:14;100880.03;;;0.79;100.00
66273;BME280;58450;52.150;4.466;2022-12-10T06:53:45;100873.63;;;0.93;100.00
66273;BME280;58450;52.150;4.466;2022-12-10T06:56:15;100891.78;;;0.97;100.00
66273;BME280;58450;52.150;4.466;2022-12-10T06:58:44;100903.28;;;0.64;100.00
66273;BME280;58450;52.150;4.466;2022-12-10T07:01:16;100901.81;;;0.82;100.00
66273;BME280;58450;52.150;4.466;2022-12-10T07:03:47;100900.53;;;0.65;100.00
66273;BME280;58450;52.150;4.466;2022-12-10T07:06:15;100894.75;;;0.71;100.00
66273;BME280;58450;52.150;4.466;2022-12-10T07:08:44;100896.19;;;0.87;100.00
66273;BME280;58450;52.150;4.466;2022-12-10T07:11:13;100889.63;;;0.91;100.00
66273;BME280;58450;52.150;4.466;2022-12-10T07:13:42;100898.81;;;0.87;100.00
66273;BME280;58450;52.150;4.466;2022-12-10T07:16:14;100893.84;;;1.05;100.00
66273;BME280;58450;52.150;4.466;2022-12-10T07:18:44;100895.31;;;0.98;100.00
66273;BME280;58450;52.150;4.466;2022-12-10T07:21:16;100894.69;;;0.94;100.00
66273;BME280;58450;52.150;4.466;2022-12-10T07:23:45;100906.88;;;0.74;100.00
66273;BME280;58450;52.150;4.466;2022-12-10T07:26:13;100904.59;;;0.81;100.00
66273;BME280;58450;52.150;4.466;2022-12-10T07:28:41;100904.84;;;0.78;100.00
66273;BME280;58450;52.150;4.466;2022-12-10T07:31:09;100909.78;;;0.82;100.00
66273;BME280;58450;52.150;4.466;2022-12-10T07:33:37;100907.00;;;0.84;100.00
66273;BME280;58450;52.150;4.466;2022-12-10T07:36:06;100901.56;;;0.85;100.00
66273;BME280;58450;52.150;4.466;2022-12-10T07:38:35;100899.16;;;0.94;100.00
66273;BME280;58450;52.150;4.466;2022-12-10T07:41:05;100899.88;;;1.07;100.00
66273;BME280;58450;52.150;4.466;2022-12-10T07:43:36;100905.88;;;1.09;100.00
66273;BME280;58450;52.150;4.466;2022-12-10T07:46:06;100901.06;;;1.03;100.00
66273;BME280;58450;52.150;4.466;2022-12-10T07:48:36;100907.13;;;0.94;100.00
66273;BME280;58450;52.150;4.466;2022-12-10T07:51:05;100904.06;;;1.10;100.00
66273;BME280;58450;52.150;4.466;2022-12-10T07:53:33;100911.91;;;1.11;100.00
66273;BME280;58450;52.150;4.466;2022-12-10T07:56:04;100916.00;;;1.15;100.00
66273;BME280;58450;52.150;4.466;2022-12-10T07:58:33;100927.91;;;1.21;100.00
66273;BME280;58450;52.150;4.466;2022-12-10T08:01:05;100922.38;;;1.13;100.00
66273;BME280;58450;52.150;4.466;2022-12-10T08:03:34;100928.38;;;1.15;100.00
66273;BME280;58450;52.150;4.466;2022-12-10T08:06:03;100921.41;;;1.14;100.00
66273;BME280;58450;52.150;4.466;2022-12-10T08:08:33;100926.13;;;1.10;100.00
66273;BME280;58450;52.150;4.466;2022-12-10T08:11:04;100921.66;;;0.99;100.00
66273;BME280;58450;52.150;4.466;2022-12-10T08:13:33;100923.69;;;1.18;100.00
66273;BME280;58450;52.150;4.466;2022-12-10T08:16:02;100916.00;;;1.15;100.00
66273;BME280;58450;52.150;4.466;2022-12-10T08:18:30;100935.28;;;1.06;100.00
66273;BME280;58450;52.150;4.466;2022-12-10T08:21:03;100927.78;;;1.23;100.00
66273;BME280;58450;52.150;4.466;2022-12-10T08:23:31;100937.94;;;1.06;100.00
66273;BME280;58450;52.150;4.466;2022-12-10T08:26:04;100929.09;;;1.17;100.00
66273;BME280;58450;52.150;4.466;2022-12-10T08:28:33;100939.63;;;0.96;100.00
66273;BME280;58450;52.150;4.466;2022-12-10T08:31:01;100951.78;;;1.10;100.00
66273;BME280;58450;52.150;4.466;2022-12-10T08:33:30;100947.44;;;1.09;100.00
66273;BME280;58450;52.150;4.466;2022-12-10T08:36:00;100956.59;;;1.16;100.00
66273;BME280;58450;52.150;4.466;2022-12-10T08:38:28;100952.72;;;1.09;100.00
66273;BME280;58450;52.150;4.466;2022-12-10T08:40:57;100953.47;;;0.99;100.00
66273;BME280;58450;52.150;4.466;2022-12-10T08:43:26;100954.66;;;1.07;100.00
66273;BME280;58450;52.150;4.466;2022-12-10T08:45:53;100959.63;;;1.00;100.00
66273;BME280;58450;52.150;4.466;2022-12-10T08:48:21;100962.25;;;1.11;100.00
66273;BME280;58450;52.150;4.466;2022-12-10T08:50:49;100969.13;;;1.02;100.00
66273;BME280;58450;52.150;4.466;2022-12-10T08:53:17;100967.56;;;1.23;100.00
66273;BME280;58450;52.150;4.466;2022-12-10T08:55:45;100963.78;;;1.37;100.00
66273;BME280;58450;52.150;4.466;2022-12-10T08:58:12;100973.34;;;1.28;100.00
66273;BME280;58450;52.150;4.466;2022-12-10T09:00:41;100969.50;;;1.21;100.00
66273;BME280;58450;52.150;4.466;2022-12-10T09:03:09;100966.91;;;1.42;100.00
66273;BME280;58450;52.150;4.466;2022-12-10T09:05:37;100973.53;;;1.36;100.00
66273;BME280;58450;52.150;4.466;2022-12-10T09:08:05;100975.97;;;1.28;100.00
66273;BME280;58450;52.150;4.466;2022-12-10T09:10:34;100979.69;;;1.37;100.00
66273;BME280;58450;52.150;4.466;2022-12-10T09:13:02;100971.56;;;1.50;100.00
66273;BME280;58450;52.150;4.466;2022-12-10T09:15:30;100976.06;;;1.38;100.00
66273;BME280;58450;52.150;4.466;2022-12-10T09:17:59;100970.53;;;1.29;100.00
66273;BME280;58450;52.150;4.466;2022-12-10T09:20:27;100970.56;;;1.07;100.00
66273;BME280;58450;52.150;4.466;2022-12-10T09:22:54;100982.00;;;1.30;100.00
66273;BME280;58450;52.150;4.466;2022-12-10T09:25:22;100983.28;;;1.47;100.00
66273;BME280;58450;52.150;4.466;2022-12-10T09:27:49;100987.16;;;1.43;100.00
66273;BME280;58450;52.150;4.466;2022-12-10T09:30:17;100980.97;;;1.54;100.00
66273;BME280;58450;52.150;4.466;2022-12-10T09:32:45;100984.44;;;1.66;100.00
66273;BME280;58450;52.150;4.466;2022-12-10T09:35:14;100992.78;;;1.61;100.00
66273;BME280;58450;52.150;4.466;2022-12-10T09:37:41;100993.50;;;1.63;100.00
66273;BME280;58450;52.150;4.466;2022-12-10T09:40:13;100998.31;;;1.58;100.00
66273;BME280;58450;52.150;4.466;2022-12-10T09:42:47;100992.72;;;1.28;100.00
66273;BME280;58450;52.150;4.466;2022-12-10T09:45:26;100989.00;;;1.20;100.00
66273;BME280;58450;52.150;4.466;2022-12-10T09:48:04;100994.91;;;1.00;100.00
66273;BME280;58450;52.150;4.466;2022-12-10T09:50:47;100986.59;;;1.28;100.00
66273;BME280;58450;52.150;4.466;2022-12-10T09:53:20;100984.13;;;1.36;100.00
66273;BME280;58450;52.150;4.466;2022-12-10T09:55:50;100987.66;;;1.37;100.00
66273;BME280;58450;52.150;4.466;2022-12-10T09:58:20;100991.59;;;1.42;100.00
66273;BME280;58450;52.150;4.466;2022-12-10T10:00:51;100996.69;;;1.34;100.00
66273;BME280;58450;52.150;4.466;2022-12-10T10:03:24;100999.81;;;1.39;100.00
66273;BME280;58450;52.150;4.466;2022-12-10T10:05:54;100999.47;;;1.32;100.00
66273;BME280;58450;52.150;4.466;2022-12-10T10:08:27;101001.16;;;1.33;100.00
66273;BME280;58450;52.150;4.466;2022-12-10T10:10:59;101001.63;;;1.39;100.00
66273;BME280;58450;52.150;4.466;2022-12-10T10:13:32;100999.78;;;1.51;100.00
66273;BME280;58450;52.150;4.466;2022-12-10T10:16:21;100993.34;;;1.32;100.00
66273;BME280;58450;52.150;4.466;2022-12-10T10:18:56;101004.84;;;1.42;100.00
66273;BME280;58450;52.150;4.466;2022-12-10T10:21:29;101001.84;;;1.47;100.00
66273;BME280;58450;52.150;4.466;2022-12-10T10:24:03;101001.00;;;1.46;100.00
66273;BME280;58450;52.150;4.466;2022-12-10T10:26:32;101007.50;;;1.42;100.00
66273;BME280;58450;52.150;4.466;2022-12-10T10:29:02;101007.63;;;1.52;100.00
66273;BME280;58450;52.150;4.466;2022-12-10T10:31:35;101003.03;;;1.66;100.00
66273;BME280;58450;52.150;4.466;2022-12-10T10:34:06;101012.56;;;1.45;100.00
66273;BME280;58450;52.150;4.466;2022-12-10T10:36:43;101021.84;;;1.51;100.00
66273;BME280;58450;52.150;4.466;2022-12-10T10:39:24;101024.53;;;1.28;100.00
66273;BME280;58450;52.150;4.466;2022-12-10T10:41:57;101024.88;;;1.35;100.00
66273;BME280;58450;52.150;4.466;2022-12-10T10:44:35;101023.09;;;1.36;100.00
66273;BME280;58450;52.150;4.466;2022-12-10T10:47:25;101030.81;;;1.27;100.00
66273;BME280;58450;52.150;4.466;2022-12-10T10:49:54;101030.22;;;1.12;100.00
66273;BME280;58450;52.150;4.466;2022-12-10T10:52:27;101030.66;;;1.40;100.00
66273;BME280;58450;52.150;4.466;2022-12-10T10:54:56;101034.25;;;1.51;100.00
66273;BME280;58450;52.150;4.466;2022-12-10T10:57:32;101030.84;;;1.71;100.00
66273;BME280;58450;52.150;4.466;2022-12-10T11:00:04;101027.38;;;1.59;100.00
66273;BME280;58450;52.150;4.466;2022-12-10T11:02:35;101019.06;;;1.53;100.00
66273;BME280;58450;52.150;4.466;2022-12-10T11:05:07;101028.47;;;1.57;100.00
66273;BME280;58450;52.150;4.466;2022-12-10T11:07:43;101024.59;;;1.61;100.00
66273;BME280;58450;52.150;4.466;2022-12-10T11:10:17;101031.38;;;1.54;100.00
66273;BME280;58450;52.150;4.466;2022-12-10T11:12:54;101020.22;;;1.83;100.00
66273;BME280;58450;52.150;4.466;2022-12-10T11:15:34;101021.94;;;2.05;100.00
66273;BME280;58450;52.150;4.466;2022-12-10T11:18:23;101006.69;;;1.86;100.00
66273;BME280;58450;52.150;4.466;2022-12-10T11:21:03;101002.72;;;2.13;100.00
66273;BME280;58450;52.150;4.466;2022-12-10T11:23:38;100998.06;;;2.26;100.00
66273;BME280;58450;52.150;4.466;2022-12-10T11:26:15;101000.72;;;2.47;100.00
66273;BME280;58450;52.150;4.466;2022-12-10T11:29:07;100995.94;;;2.20;100.00
66273;BME280;58450;52.150;4.466;2022-12-10T11:31:54;101002.66;;;2.24;100.00
66273;BME280;58450;52.150;4.466;2022-12-10T11:34:43;101001.56;;;2.27;100.00
66273;BME280;58450;52.150;4.466;2022-12-10T11:37:21;101000.19;;;2.32;100.00
66273;BME280;58450;52.150;4.466;2022-12-10T11:40:06;100997.84;;;2.60;100.00
66273;BME280;58450;52.150;4.466;2022-12-10T11:43:04;101000.28;;;2.42;100.00
66273;BME280;58450;52.150;4.466;2022-12-10T11:46:01;100996.75;;;2.42;100.00
66273;BME280;58450;52.150;4.466;2022-12-10T11:48:51;100986.91;;;2.32;100.00
66273;BME280;58450;52.150;4.466;2022-12-10T11:51:34;100990.69;;;2.30;100.00
66273;BME280;58450;52.150;4.466;2022-12-10T11:54:17;100979.88;;;2.21;100.00
66273;BME280;58450;52.150;4.466;2022-12-10T11:57:03;100985.88;;;2.02;100.00
66273;BME280;58450;52.150;4.466;2022-12-10T11:59:41;100995.69;;;1.90;100.00
66273;BME280;58450;52.150;4.466;2022-12-10T12:02:38;101007.03;;;1.48;100.00
66273;BME280;58450;52.150;4.466;2022-12-10T12:05:26;101002.44;;;1.51;100.00
66273;BME280;58450;52.150;4.466;2022-12-10T12:08:13;100988.88;;;1.76;100.00
66273;BME280;58450;52.150;4.466;2022-12-10T12:11:05;100993.53;;;1.84;100.00
66273;BME280;58450;52.150;4.466;2022-12-10T12:13:48;100992.28;;;2.00;100.00
66273;BME280;58450;52.150;4.466;2022-12-10T12:16:29;100992.81;;;1.82;100.00
66273;BME280;58450;52.150;4.466;2022-12-10T12:19:03;100988.72;;;1.78;100.00
66273;BME280;58450;52.150;4.466;2022-12-10T12:21:36;100986.25;;;1.98;100.00
66273;BME280;58450;52.150;4.466;2022-12-10T12:24:12;100978.84;;;2.13;100.00
66273;BME280;58450;52.150;4.466;2022-12-10T12:26:50;100997.50;;;1.90;100.00
66273;BME280;58450;52.150;4.466;2022-12-10T12:29:30;100995.44;;;1.50;100.00
66273;BME280;58450;52.150;4.466;2022-12-10T12:32:03;100993.75;;;1.48;100.00
66273;BME280;58450;52.150;4.466;2022-12-10T12:34:44;101000.00;;;1.59;100.00
66273;BME280;58450;52.150;4.466;2022-12-10T12:37:20;100982.06;;;1.51;100.00
66273;BME280;58450;52.150;4.466;2022-12-10T12:39:56;100986.63;;;1.60;100.00
66273;BME280;58450;52.150;4.466;2022-12-10T12:42:32;100986.38;;;1.64;100.00
66273;BME280;58450;52.150;4.466;2022-12-10T12:45:12;100987.00;;;1.56;100.00
66273;BME280;58450;52.150;4.466;2022-12-10T12:47:47;100976.09;;;1.70;100.00
66273;BME280;58450;52.150;4.466;2022-12-10T12:50:24;100981.16;;;1.73;100.00
66273;BME280;58450;52.150;4.466;2022-12-10T12:52:57;100982.50;;;1.68;100.00
66273;BME280;58450;52.150;4.466;2022-12-10T12:55:31;100981.88;;;1.75;100.00
66273;BME280;58450;52.150;4.466;2022-12-10T12:58:17;100992.91;;;1.59;100.00
66273;BME280;58450;52.150;4.466;2022-12-10T13:00:57;100992.50;;;1.75;100.00
66273;BME280;58450;52.150;4.466;2022-12-10T13:03:35;100994.00;;;1.89;100.00
66273;BME280;58450;52.150;4.466;2022-12-10T13:06:14;100982.75;;;1.97;100.00
66273;BME280;58450;52.150;4.466;2022-12-10T13:08:46;100995.78;;;1.68;100.00
66273;BME280;58450;52.150;4.466;2022-12-10T13:11:27;101002.59;;;1.82;100.00
66273;BME280;58450;52.150;4.466;2022-12-10T13:14:04;101009.41;;;1.63;100.00
66273;BME280;58450;52.150;4.466;2022-12-10T13:17:22;101010.38;;;1.62;100.00